Time;durP1;ratioP1;P1;durP2;ratioP2;P2;SDS_P1;SDS_P2;PMS_P1;PMS_P2;Temp;Humidity;BMP_temperature;BMP_pressure;BME280_temperature;BME280_humidity;BME280_pressure;Samples;Min_cycle;Max_cycle;Signal;HPM_P1;HPM_P2
2022/08/10 00:01:10;;;;;;;6.68;5.30;;;15.10;99.90;;;;;;5045624;28;20448;-70
2022/08/10 00:03:36;;;;;;;7.13;5.30;;;15.00;99.90;;;;;;5047486;28;20484;-70
2022/08/10 00:06:02;;;;;;;6.82;4.90;;;15.00;99.90;;;;;;5029990;28;20045;-70
2022/08/10 00:08:28;;;;;;;7.28;4.95;;;15.00;99.90;;;;;;5047084;28;20132;-70
2022/08/10 00:10:55;;;;;;;6.45;5.22;;;15.00;99.90;;;;;;5048430;28;20475;-70
2022/08/10 00:13:22;;;;;;;9.40;5.57;;;15.00;99.90;;;;;;5049470;28;20116;-70
2022/08/10 00:15:48;;;;;;;8.82;5.82;;;14.90;99.90;;;;;;5046703;28;20053;-70
2022/08/10 00:18:13;;;;;;;6.93;5.28;;;14.90;99.90;;;;;;5049497;28;20071;-70
2022/08/10 00:20:39;;;;;;;8.15;5.72;;;15.00;99.90;;;;;;5047336;28;20080;-70
2022/08/10 00:23:05;;;;;;;10.15;5.97;;;15.00;99.90;;;;;;5045024;28;20116;-70
2022/08/10 00:25:31;;;;;;;9.43;5.70;;;14.90;99.90;;;;;;5048236;28;20053;-70
2022/08/10 00:27:56;;;;;;;9.27;5.95;;;14.90;99.90;;;;;;5046688;28;20495;-70
2022/08/10 00:30:22;;;;;;;9.10;6.57;;;14.80;99.90;;;;;;5034315;28;20120;-70
2022/08/10 00:32:47;;;;;;;11.13;6.82;;;14.90;99.90;;;;;;5060099;28;20095;-70
2022/08/10 00:35:13;;;;;;;11.23;6.25;;;14.80;99.90;;;;;;5047828;28;20140;-70
2022/08/10 00:37:39;;;;;;;10.45;6.43;;;14.80;99.90;;;;;;5047671;28;20040;-70
2022/08/10 00:40:05;;;;;;;9.13;6.53;;;14.80;99.90;;;;;;5048444;28;20040;-70
2022/08/10 00:42:31;;;;;;;10.05;6.65;;;14.80;99.90;;;;;;5049210;28;20045;-70
2022/08/10 00:44:56;;;;;;;9.57;6.90;;;14.80;99.90;;;;;;5048645;28;20052;-70
2022/08/10 00:47:22;;;;;;;9.65;6.55;;;14.70;99.90;;;;;;5043588;28;20041;-70
2022/08/10 00:49:48;;;;;;;12.13;7.18;;;14.70;99.90;;;;;;5048358;28;20041;-70
2022/08/10 00:52:17;;;;;;;10.20;7.45;;;14.60;99.90;;;;;;5045504;28;20583;-70
2022/08/10 00:54:43;;;;;;;14.23;7.80;;;14.70;99.90;;;;;;5045833;28;20033;-70
2022/08/10 00:57:10;;;;;;;10.52;7.15;;;14.60;99.90;;;;;;5046964;28;20487;-70
2022/08/10 00:59:36;;;;;;;12.30;7.85;;;14.70;99.90;;;;;;5045533;28;20052;-70
2022/08/10 01:02:02;;;;;;;11.40;7.68;;;14.60;99.90;;;;;;5040846;28;20036;-70
2022/08/10 01:04:28;;;;;;;12.45;8.23;;;14.60;99.90;;;;;;5047849;28;20041;-70
2022/08/10 01:07:10;;;;;;;11.05;8.20;;;14.60;99.90;;;;;;5045859;28;20506;-70
2022/08/10 01:10:00;;;;;;;12.32;6.90;;;14.60;99.90;;;;;;5058563;28;20045;-70
2022/08/10 01:12:44;;;;;;;10.25;7.05;;;14.60;99.90;;;;;;5026766;28;20102;-70
2022/08/10 01:15:17;;;;;;;11.75;7.65;;;14.50;99.90;;;;;;5061985;28;20090;-70
2022/08/10 01:18:03;;;;;;;12.65;7.78;;;14.50;99.90;;;;;;5043869;28;20045;-70
2022/08/10 01:20:45;;;;;;;11.90;8.20;;;14.60;99.90;;;;;;5041433;28;20056;-69
2022/08/10 01:23:47;;;;;;;12.75;7.90;;;14.50;99.90;;;;;;5049632;28;20039;-70
2022/08/10 01:26:29;;;;;;;12.20;8.00;;;14.60;99.90;;;;;;5032159;28;20071;-70
2022/08/10 01:29:28;;;;;;;13.15;8.48;;;14.50;99.90;;;;;;5045354;28;20178;-70
2022/08/10 01:32:00;;;;;;;13.30;8.77;;;14.50;99.90;;;;;;5032588;28;20037;-69
2022/08/10 01:34:30;;;;;;;;;;;14.50;99.90;;;;;;5060806;28;20052;-69
2022/08/10 01:37:03;;;;;;;14.88;8.88;;;14.50;99.90;;;;;;5049987;28;20436;-70
2022/08/10 01:39:35;;;;;;;14.18;8.90;;;14.50;99.90;;;;;;5048842;28;20048;-70
2022/08/10 01:42:03;;;;;;;14.75;8.85;;;14.50;99.90;;;;;;5050135;28;20411;-70
2022/08/10 01:44:33;;;;;;;15.65;9.15;;;14.40;99.90;;;;;;5049144;28;20120;-70
2022/08/10 01:49:59;;;;;;;13.40;9.15;;;14.40;99.90;;;;;;5046369;28;20043;-70
2022/08/10 01:52:27;;;;;;;13.45;9.23;;;14.40;99.90;;;;;;5054459;28;20033;-69
2022/08/10 01:54:55;;;;;;;15.77;9.65;;;14.40;99.90;;;;;;5046561;28;20384;-69
2022/08/10 01:57:22;;;;;;;13.93;9.57;;;14.40;99.90;;;;;;5047792;28;20090;-69
2022/08/10 01:59:49;;;;;;;14.80;9.05;;;14.40;99.90;;;;;;5056978;28;20049;-69
2022/08/10 02:02:16;;;;;;;12.38;8.73;;;14.30;99.90;;;;;;5048723;28;20516;-69
2022/08/10 02:04:47;;;;;;;14.90;9.38;;;14.30;99.90;;;;;;5049500;28;20045;-70
2022/08/10 02:07:17;;;;;;;15.45;9.80;;;14.30;99.90;;;;;;5050947;28;20121;-69
2022/08/10 02:09:48;;;;;;;14.70;9.50;;;14.30;99.90;;;;;;5045516;28;20499;-69
2022/08/10 02:12:17;;;;;;;15.10;9.48;;;14.20;99.90;;;;;;5049268;28;20045;-70
2022/08/10 02:14:49;;;;;;;16.27;9.90;;;14.30;99.90;;;;;;5057929;28;20481;-69
2022/08/10 02:17:35;;;;;;;;;;;14.30;99.90;;;;;;5049553;28;20033;-69
2022/08/10 02:20:11;;;;;;;15.30;9.50;;;14.30;99.90;;;;;;5046476;28;19916;-69
2022/08/10 02:22:38;;;;;;;16.15;10.90;;;14.30;99.90;;;;;;5052225;28;20056;-69
2022/08/10 02:25:06;;;;;;;15.27;9.88;;;14.30;99.90;;;;;;5047877;28;20385;-69
2022/08/10 02:27:33;;;;;;;19.23;10.88;;;14.30;99.90;;;;;;5048596;28;20103;-69
2022/08/10 02:30:00;;;;;;;16.17;9.98;;;14.30;99.90;;;;;;5050842;28;20036;-69
2022/08/10 02:32:27;;;;;;;19.95;10.60;;;14.30;99.90;;;;;;5050581;28;20436;-69
2022/08/10 02:34:54;;;;;;;16.52;9.60;;;14.30;99.90;;;;;;5046728;28;20041;-69
2022/08/10 02:37:23;;;;;;;18.67;11.00;;;14.20;99.90;;;;;;5048309;28;20201;-69
2022/08/10 02:39:49;;;;;;;16.33;9.68;;;14.20;99.90;;;;;;5048522;28;20478;-69
2022/08/10 02:42:44;;;;;;;15.02;9.70;;;14.10;99.90;;;;;;5051548;28;20033;-69
2022/08/10 02:45:27;;;;;;;16.38;10.57;;;14.10;99.90;;;;;;5047446;28;20100;-69
2022/08/10 02:48:04;;;;;;;15.77;10.10;;;14.10;99.90;;;;;;5048374;28;20114;-69
2022/08/10 02:50:35;;;;;;;17.48;10.52;;;14.00;99.90;;;;;;5061099;28;20048;-68
2022/08/10 02:53:18;;;;;;;16.23;10.55;;;14.10;99.90;;;;;;5061936;28;20077;-68
2022/08/10 02:55:49;;;;;;;18.25;11.25;;;14.10;99.90;;;;;;5048258;28;20045;-69
2022/08/10 02:58:24;;;;;;;17.45;10.65;;;14.10;99.90;;;;;;5047541;28;20041;-69
2022/08/10 03:00:55;;;;;;;21.98;10.65;;;14.00;99.90;;;;;;5049806;28;20076;-69
2022/08/10 03:03:24;;;;;;;18.00;10.77;;;14.10;99.90;;;;;;5047636;28;20072;-68
2022/08/10 03:05:54;;;;;;;22.20;11.90;;;14.10;99.90;;;;;;5047196;28;20075;-68
2022/08/10 03:08:24;;;;;;;16.83;10.57;;;14.10;99.90;;;;;;5048768;28;20090;-68
2022/08/10 03:10:51;;;;;;;16.50;10.65;;;14.10;99.90;;;;;;5059512;28;20044;-68
2022/08/10 03:13:17;;;;;;;18.77;11.05;;;14.10;99.90;;;;;;5051008;28;20038;-68
2022/08/10 03:15:44;;;;;;;18.85;11.43;;;14.00;99.90;;;;;;5049933;28;20040;-68
2022/08/10 03:18:11;;;;;;;17.73;11.48;;;14.00;99.90;;;;;;5049253;28;20047;-68
2022/08/10 03:20:39;;;;;;;19.58;12.20;;;14.00;99.90;;;;;;5049714;28;20079;-68
2022/08/10 03:23:13;;;;;;;20.75;11.82;;;14.00;99.90;;;;;;5049045;28;20083;-69
2022/08/10 03:25:40;;;;;;;18.75;11.70;;;14.10;99.90;;;;;;5047438;28;20049;-69
2022/08/10 03:28:07;;;;;;;19.25;11.27;;;14.00;99.90;;;;;;5045396;28;20033;-69
2022/08/10 03:30:33;;;;;;;20.15;12.07;;;14.00;99.90;;;;;;5049062;28;20048;-69
2022/08/10 03:33:02;;;;;;;20.85;12.40;;;13.90;99.90;;;;;;5045023;28;20041;-69
2022/08/10 03:35:28;;;;;;;21.67;11.90;;;14.00;99.90;;;;;;5045376;28;20127;-69
2022/08/10 03:37:54;;;;;;;21.30;11.65;;;13.90;99.90;;;;;;5048329;28;20119;-69
2022/08/10 03:40:20;;;;;;;17.55;11.00;;;13.90;99.90;;;;;;5033057;28;20049;-69
2022/08/10 03:42:48;;;;;;;20.50;11.70;;;13.90;99.90;;;;;;5049028;28;20037;-69
2022/08/10 03:45:16;;;;;;;19.23;11.60;;;13.90;99.90;;;;;;5045411;28;20037;-69
2022/08/10 03:47:43;;;;;;;19.23;11.43;;;13.90;99.90;;;;;;5054316;28;20052;-69
2022/08/10 03:50:11;;;;;;;16.38;11.05;;;13.90;99.90;;;;;;5049734;28;20033;-69
2022/08/10 03:52:37;;;;;;;19.90;11.70;;;13.90;99.90;;;;;;5047366;28;20037;-69
2022/08/10 03:55:04;;;;;;;19.08;12.13;;;13.80;99.90;;;;;;5050204;28;20071;-69
2022/08/10 03:57:29;;;;;;;21.60;12.05;;;13.80;99.90;;;;;;5046227;28;20480;-68
2022/08/10 03:59:55;;;;;;;20.63;12.30;;;13.80;99.90;;;;;;5047361;28;20039;-69
2022/08/10 04:02:21;;;;;;;21.35;12.18;;;13.80;99.90;;;;;;5047420;28;20125;-69
2022/08/10 04:04:47;;;;;;;23.40;12.23;;;13.80;99.90;;;;;;5044662;28;20115;-69
2022/08/10 04:07:13;;;;;;;21.20;12.32;;;13.80;99.90;;;;;;5046596;28;20041;-71
2022/08/10 04:09:40;;;;;;;24.50;13.38;;;13.90;99.90;;;;;;5049039;28;20042;-70
2022/08/10 04:12:05;;;;;;;24.85;13.32;;;13.80;99.90;;;;;;5047984;28;20044;-69
2022/08/10 04:14:31;;;;;;;23.13;13.60;;;13.80;99.90;;;;;;5043504;28;20041;-70
2022/08/10 04:16:57;;;;;;;21.65;12.60;;;13.80;99.90;;;;;;5045707;28;20045;-69
2022/08/10 04:19:25;;;;;;;19.33;11.90;;;13.90;99.90;;;;;;5063443;28;20395;-70
2022/08/10 04:22:01;;;;;;;20.55;12.27;;;13.90;99.90;;;;;;5046841;28;20208;-70
2022/08/10 04:24:31;;;;;;;22.05;12.63;;;13.90;99.90;;;;;;5047794;28;20049;-70
2022/08/10 04:26:57;;;;;;;22.15;12.68;;;14.00;99.90;;;;;;5061382;28;20128;-70
2022/08/10 04:29:23;;;;;;;22.63;12.98;;;13.90;99.90;;;;;;5045138;28;20121;-70
2022/08/10 04:31:51;;;;;;;23.55;13.07;;;14.00;99.90;;;;;;5047553;28;20399;-70
2022/08/10 04:34:19;;;;;;;23.48;13.05;;;13.90;99.90;;;;;;5046929;28;20059;-70
2022/08/10 04:36:46;;;;;;;23.67;13.30;;;14.00;99.90;;;;;;5046015;28;20132;-70
2022/08/10 04:39:12;;;;;;;26.98;13.32;;;13.90;99.90;;;;;;5047507;28;20041;-70
2022/08/10 04:41:39;;;;;;;20.40;12.20;;;14.00;99.90;;;;;;5047618;28;20040;-70
2022/08/10 04:44:04;;;;;;;22.42;11.82;;;13.90;99.90;;;;;;5048381;28;20056;-70
2022/08/10 04:46:30;;;;;;;19.58;10.95;;;14.00;99.90;;;;;;5040385;28;20041;-70
2022/08/10 04:48:55;;;;;;;19.83;11.23;;;14.00;99.90;;;;;;5054462;28;20045;-70
2022/08/10 04:51:21;;;;;;;18.23;10.57;;;13.90;99.90;;;;;;5048266;28;20047;-71
2022/08/10 04:53:49;;;;;;;23.27;13.13;;;13.90;99.90;;;;;;5052345;28;20043;-70
2022/08/10 04:56:15;;;;;;;25.38;13.30;;;14.00;99.90;;;;;;5031831;28;20076;-71
2022/08/10 04:58:40;;;;;;;22.20;12.35;;;14.00;99.90;;;;;;5050530;28;20072;-71
2022/08/10 05:01:06;;;;;;;23.35;12.68;;;14.10;99.90;;;;;;5060502;28;20488;-71
2022/08/10 05:03:31;;;;;;;22.63;13.25;;;14.20;99.90;;;;;;5051140;28;20045;-70
2022/08/10 05:05:57;;;;;;;22.80;13.40;;;14.20;99.90;;;;;;5046913;28;20535;-70
2022/08/10 05:08:24;;;;;;;20.35;12.07;;;14.20;99.90;;;;;;5051137;28;20028;-68
2022/08/10 05:10:50;;;;;;;21.58;12.52;;;14.30;99.90;;;;;;5034868;28;20452;-70
2022/08/10 05:13:16;;;;;;;20.58;12.10;;;14.40;99.90;;;;;;5051623;28;20367;-69
2022/08/10 05:15:44;;;;;;;21.13;12.07;;;14.40;99.90;;;;;;5049946;28;20054;-69
2022/08/10 05:18:10;;;;;;;27.77;13.20;;;14.50;99.90;;;;;;5051434;28;20071;-69
2022/08/10 05:20:36;;;;;;;22.52;12.88;;;14.60;99.90;;;;;;5045015;28;20399;-68
2022/08/10 05:23:01;;;;;;;25.75;13.38;;;14.70;99.90;;;;;;5062214;28;20111;-69
2022/08/10 05:25:27;;;;;;;22.58;12.30;;;14.70;99.90;;;;;;5052458;28;20453;-68
2022/08/10 05:27:53;;;;;;;20.50;12.40;;;14.70;99.90;;;;;;5052108;28;20044;-69
2022/08/10 05:30:20;;;;;;;23.15;12.10;;;14.90;99.90;;;;;;5050495;28;20850;-69
2022/08/10 05:32:46;;;;;;;21.80;12.57;;;14.90;99.90;;;;;;5046418;28;20040;-69
2022/08/10 05:35:13;;;;;;;20.55;12.18;;;15.10;99.90;;;;;;5052813;28;20047;-70
2022/08/10 05:37:40;;;;;;;19.42;11.77;;;15.20;99.90;;;;;;5066640;28;20052;-69
2022/08/10 05:40:07;;;;;;;18.55;11.75;;;15.30;99.90;;;;;;5047461;28;20041;-70
2022/08/10 05:42:33;;;;;;;22.02;12.43;;;15.40;99.90;;;;;;5031228;28;20040;-69
2022/08/10 05:44:59;;;;;;;19.90;11.43;;;15.40;99.90;;;;;;5061287;28;20052;-70
2022/08/10 05:47:25;;;;;;;20.35;10.95;;;15.60;99.90;;;;;;5043034;28;20041;-69
2022/08/10 05:49:51;;;;;;;20.35;11.35;;;15.60;99.90;;;;;;5045919;28;20041;-69
2022/08/10 05:52:18;;;;;;;20.95;11.48;;;15.70;99.90;;;;;;5047038;28;20392;-70
2022/08/10 05:54:45;;;;;;;21.50;11.60;;;15.80;99.90;;;;;;5046982;28;20041;-70
2022/08/10 05:57:13;;;;;;;19.05;11.23;;;15.80;99.90;;;;;;5046759;28;20068;-70
2022/08/10 05:59:50;;;;;;;17.90;11.40;;;16.00;99.90;;;;;;5047843;28;20965;-70
2022/08/10 06:02:24;;;;;;;20.88;11.07;;;16.10;99.90;;;;;;5063446;28;20479;-70
2022/08/10 06:04:52;;;;;;;20.65;11.02;;;16.10;99.90;;;;;;5044495;28;20092;-69
2022/08/10 06:07:19;;;;;;;18.73;11.23;;;16.20;99.90;;;;;;5043127;28;20391;-69
2022/08/10 06:09:46;;;;;;;17.52;10.85;;;16.40;99.90;;;;;;5046005;28;20049;-70
2022/08/10 06:12:13;;;;;;;15.93;10.35;;;16.50;99.90;;;;;;5045379;28;20099;-69
2022/08/10 06:15:00;;;;;;;20.35;11.23;;;16.60;99.90;;;;;;5046177;28;20045;-72
2022/08/10 06:17:30;;;;;;;15.63;10.55;;;16.70;99.90;;;;;;5062864;28;20487;-71
2022/08/10 06:19:59;;;;;;;21.42;10.70;;;16.80;99.90;;;;;;5047087;28;20033;-69
2022/08/10 06:22:28;;;;;;;16.73;9.90;;;16.90;99.90;;;;;;5046495;28;20029;-71
2022/08/10 06:24:59;;;;;;;17.67;10.20;;;17.00;99.90;;;;;;5046488;28;20488;-71
2022/08/10 06:27:25;;;;;;;16.77;9.35;;;17.10;99.90;;;;;;5038546;28;20049;-71
2022/08/10 06:29:52;;;;;;;18.95;9.25;;;17.20;99.90;;;;;;5045663;28;20043;-72
2022/08/10 06:32:24;;;;;;;17.65;9.55;;;17.30;99.90;;;;;;5046905;28;20610;-71
2022/08/10 06:34:52;;;;;;;14.98;9.43;;;17.40;99.90;;;;;;5047898;28;20492;-72
2022/08/10 06:37:23;;;;;;;13.85;9.38;;;17.50;99.90;;;;;;5046411;28;20892;-70
2022/08/10 06:39:48;;;;;;;16.55;9.43;;;17.70;99.90;;;;;;5058740;28;20072;-72
2022/08/10 06:42:36;;;;;;;15.15;8.85;;;17.70;99.90;;;;;;5046768;28;20507;-70
2022/08/10 06:45:12;;;;;;;14.07;8.55;;;17.80;99.90;;;;;;5048991;28;20052;-69
2022/08/10 06:47:42;;;;;;;13.35;8.73;;;17.90;99.90;;;;;;5042156;28;20480;-71
2022/08/10 06:50:25;;;;;;;12.35;8.30;;;18.00;99.90;;;;;;5045962;28;20049;-69
2022/08/10 06:52:52;;;;;;;12.40;8.25;;;18.10;99.90;;;;;;5048658;28;20052;-72
2022/08/10 06:55:21;;;;;;;13.57;9.07;;;18.20;99.90;;;;;;5044384;28;20048;-71
2022/08/10 06:57:49;;;;;;;13.10;8.15;;;18.30;99.90;;;;;;5049804;28;20372;-71
2022/08/10 07:00:15;;;;;;;14.38;8.38;;;18.40;99.90;;;;;;5049793;28;20094;-69
2022/08/10 07:02:50;;;;;;;13.07;8.77;;;18.40;99.90;;;;;;5048407;28;20055;-71
2022/08/10 07:05:21;;;;;;;10.82;7.68;;;18.50;99.90;;;;;;5045308;28;20120;-68
2022/08/10 07:07:49;;;;;;;13.20;7.63;;;18.60;99.90;;;;;;5051828;28;20071;-71
2022/08/10 07:10:21;;;;;;;12.50;7.25;;;18.70;99.90;;;;;;5047339;28;20429;-72
2022/08/10 07:12:49;;;;;;;10.37;7.37;;;18.90;99.90;;;;;;5049248;28;20068;-70
2022/08/10 07:15:17;;;;;;;10.98;7.35;;;19.00;99.90;;;;;;5048757;28;20048;-71
2022/08/10 07:17:43;;;;;;;14.93;7.97;;;19.10;99.90;;;;;;5038653;28;20510;-70
2022/08/10 07:20:17;;;;;;;12.98;7.88;;;19.10;99.90;;;;;;5048990;28;20138;-71
2022/08/10 07:22:46;;;;;;;13.20;7.68;;;19.30;99.90;;;;;;5046605;28;20040;-71
2022/08/10 07:25:15;;;;;;;14.45;7.60;;;19.40;99.90;;;;;;5047068;28;20480;-70
2022/08/10 07:27:42;;;;;;;12.30;7.45;;;19.50;99.90;;;;;;5046258;28;20098;-71
2022/08/10 07:30:08;;;;;;;12.07;7.47;;;19.60;99.90;;;;;;5040037;28;20041;-70
2022/08/10 07:32:35;;;;;;;10.20;6.70;;;19.70;99.90;;;;;;5043930;28;20082;-71
2022/08/10 07:35:02;;;;;;;10.75;6.47;;;19.80;99.90;;;;;;5050009;28;20116;-70
2022/08/10 07:37:30;;;;;;;9.07;6.68;;;19.80;99.90;;;;;;5047255;28;20041;-70
2022/08/10 07:39:56;;;;;;;12.35;6.53;;;20.00;99.90;;;;;;5048782;28;20143;-71
2022/08/10 07:42:24;;;;;;;10.48;6.68;;;20.10;99.90;;;;;;5047762;28;20064;-70
2022/08/10 07:44:50;;;;;;;9.55;5.82;;;20.20;99.90;;;;;;5046963;28;20531;-69
2022/08/10 07:47:43;;;;;;;10.75;6.00;;;20.30;99.90;;;;;;5047992;28;20133;-71
2022/08/10 07:50:12;;;;;;;9.43;5.90;;;20.40;99.90;;;;;;5024990;28;21782;-69
2022/08/10 07:52:38;;;;;;;8.38;5.95;;;20.50;99.90;;;;;;5068586;28;20129;-69
2022/08/10 07:55:06;;;;;;;9.63;5.95;;;20.50;99.90;;;;;;5033814;28;20044;-69
2022/08/10 07:57:35;;;;;;;11.73;5.65;;;20.60;99.90;;;;;;5048181;28;20045;-70
2022/08/10 08:00:09;;;;;;;8.27;5.93;;;20.60;99.90;;;;;;5047231;28;20411;-70
2022/08/10 08:02:44;;;;;;;8.85;5.22;;;20.80;99.90;;;;;;5047072;28;20499;-70
2022/08/10 08:05:12;;;;;;;7.88;4.80;;;20.90;99.90;;;;;;5047698;28;20368;-70
2022/08/10 08:07:39;;;;;;;8.70;5.43;;;20.90;99.90;;;;;;5048188;28;20073;-68
2022/08/10 08:10:07;;;;;;;7.28;5.10;;;21.00;99.90;;;;;;5047626;28;20124;-69
2022/08/10 08:12:34;;;;;;;9.02;5.10;;;21.10;99.90;;;;;;5049029;28;20052;-69
2022/08/10 08:15:01;;;;;;;7.28;4.60;;;21.20;99.90;;;;;;5047476;28;20514;-71
2022/08/10 08:17:26;;;;;;;8.13;4.75;;;21.30;99.90;;;;;;5044801;28;20495;-70
2022/08/10 08:19:56;;;;;;;7.90;4.63;;;21.40;99.90;;;;;;5047306;28;20124;-71
2022/08/10 08:22:23;;;;;;;7.00;4.10;;;21.50;99.90;;;;;;5045098;28;20048;-69
2022/08/10 08:24:50;;;;;;;6.10;4.53;;;21.60;99.90;;;;;;5047055;28;20044;-69
2022/08/10 08:27:18;;;;;;;9.05;4.57;;;21.70;99.90;;;;;;5039519;28;20041;-69
2022/08/10 08:29:47;;;;;;;9.27;4.10;;;21.80;99.90;;;;;;5042799;28;20040;-70
2022/08/10 08:32:17;;;;;;;6.68;4.10;;;21.90;99.90;;;;;;5041131;28;20082;-70
2022/08/10 08:34:45;;;;;;;7.82;4.40;;;22.00;99.90;;;;;;5021103;28;20470;-69
2022/08/10 08:37:13;;;;;;;8.85;4.20;;;22.10;99.90;;;;;;5054990;28;20063;-69
2022/08/10 08:39:40;;;;;;;7.63;4.28;;;22.20;99.90;;;;;;5039026;28;20475;-70
2022/08/10 08:42:36;;;;;;;9.20;4.10;;;22.40;99.90;;;;;;5042657;28;20108;-70
2022/08/10 08:45:36;;;;;;;7.43;3.80;;;22.40;99.90;;;;;;5043840;28;20509;-69
2022/08/10 08:48:34;;;;;;;8.10;4.40;;;22.50;99.90;;;;;;5032697;28;20040;-70
2022/08/10 08:51:23;;;;;;;6.25;3.65;;;22.50;99.90;;;;;;5039616;28;20041;-69
2022/08/10 08:54:28;;;;;;;6.32;3.50;;;22.60;99.90;;;;;;5036812;28;20049;-71
2022/08/10 08:57:04;;;;;;;6.10;4.05;;;22.70;99.90;;;;;;5040901;28;20036;-70
2022/08/10 08:59:36;;;;;;;6.10;3.90;;;22.80;99.90;;;;;;5032475;28;20064;-69
2022/08/10 09:02:51;;;;;;;8.98;3.83;;;22.90;99.90;;;;;;5041104;28;20041;-71
2022/08/10 09:05:55;;;;;;;6.95;3.50;;;23.10;99.90;;;;;;4922661;28;20060;-72
2022/08/10 09:08:50;;;;;;;7.30;3.30;;;23.20;99.90;;;;;;5007277;28;20045;-71
2022/08/10 09:11:37;;;;;;;7.68;3.58;;;23.30;99.90;;;;;;5043445;28;20052;-69
2022/08/10 09:14:10;;;;;;;5.93;3.28;;;23.40;99.90;;;;;;5041915;28;20037;-68
2022/08/10 09:16:54;;;;;;;6.10;3.00;;;23.50;99.90;;;;;;5026573;28;20056;-70
2022/08/10 09:19:45;;;;;;;5.25;3.22;;;23.60;99.90;;;;;;5058374;28;20052;-70
2022/08/10 09:22:17;;;;;;;6.72;2.97;;;23.70;99.90;;;;;;5041176;28;20488;-70
2022/08/10 09:25:04;;;;;;;8.80;3.35;;;23.80;99.90;;;;;;5059013;28;20461;-70
2022/08/10 09:27:42;;;;;;;3.92;2.90;;;23.90;99.90;;;;;;5043163;28;20051;-71
2022/08/10 09:30:09;;;;;;;6.45;3.20;;;23.90;99.90;;;;;;5044894;28;20033;-70
2022/08/10 09:32:48;;;;;;;7.38;3.10;;;24.00;99.90;;;;;;5059864;28;20044;-70
2022/08/10 09:35:24;;;;;;;7.28;3.20;;;24.10;99.90;;;;;;5047530;28;20032;-70
2022/08/10 09:38:38;;;;;;;7.10;3.53;;;24.10;99.90;;;;;;5044432;28;20124;-71
2022/08/10 09:41:31;;;;;;;7.85;3.05;;;24.20;99.90;;;;;;5044479;28;20115;-70
2022/08/10 09:44:06;;;;;;;8.90;3.38;;;24.20;99.90;;;;;;5051340;28;20041;-70
2022/08/10 09:47:04;;;;;;;8.60;3.40;;;24.30;99.90;;;;;;5050413;28;20091;-70
2022/08/10 09:50:07;;;;;;;4.18;2.78;;;24.40;99.90;;;;;;5041320;28;20047;-69
2022/08/10 09:53:00;;;;;;;5.75;2.58;;;24.50;99.90;;;;;;5043124;28;20041;-70
2022/08/10 09:55:32;;;;;;;7.07;3.20;;;24.60;99.90;;;;;;5051722;28;20479;-69
2022/08/10 09:58:07;;;;;;;5.80;3.03;;;24.70;99.90;;;;;;5046889;28;20488;-70
2022/08/10 10:00:39;;;;;;;7.00;2.42;;;24.70;99.90;;;;;;5050508;28;20049;-69
2022/08/10 10:03:39;;;;;;;4.82;2.50;;;24.80;99.90;;;;;;5031368;28;20056;-69
2022/08/10 10:06:35;;;;;;;4.18;2.38;;;24.80;99.90;;;;;;5037241;28;20485;-70
2022/08/10 10:09:18;;;;;;;4.80;2.53;;;24.90;99.90;;;;;;5047703;28;20048;-70
2022/08/10 10:12:08;;;;;;;5.47;2.35;;;24.90;99.90;;;;;;5061333;28;20037;-70
2022/08/10 10:18:15;;;;;;;3.45;2.30;;;25.00;99.90;;;;;;5043805;28;20055;-70
2022/08/10 10:20:59;;;;;;;3.95;2.10;;;25.10;99.90;;;;;;5011377;28;20053;-69
2022/08/10 10:23:36;;;;;;;5.70;2.20;;;25.10;99.90;;;;;;5034357;28;20044;-68
2022/08/10 10:26:08;;;;;;;4.82;2.30;;;25.10;99.90;;;;;;5048651;28;20124;-70
2022/08/10 10:28:47;;;;;;;4.70;2.30;;;25.10;99.90;;;;;;5050060;28;20507;-69
2022/08/10 10:31:38;;;;;;;5.30;2.28;;;25.20;99.90;;;;;;5050102;28;20036;-70
2022/08/10 10:34:09;;;;;;;5.00;2.22;;;25.30;99.90;;;;;;5050306;28;20471;-69
2022/08/10 10:36:38;;;;;;;5.35;2.60;;;25.40;99.90;;;;;;5049966;28;20525;-70
2022/08/10 10:39:05;;;;;;;3.53;2.38;;;25.40;99.90;;;;;;5051228;28;20095;-69
2022/08/10 10:42:05;;;;;;;4.22;2.35;;;25.40;99.90;;;;;;5046259;28;20123;-71
2022/08/10 10:45:00;;;;;;;3.92;2.03;;;25.50;99.90;;;;;;5050298;28;20124;-71
2022/08/10 10:47:47;;;;;;;3.35;2.38;;;25.50;99.90;;;;;;5049014;28;20395;-69
2022/08/10 10:50:52;;;;;;;4.88;2.30;;;25.60;99.90;;;;;;5069933;28;20040;-76
2022/08/10 10:53:18;;;;;;;4.82;2.33;;;25.60;99.90;;;;;;5047595;28;20080;-74
2022/08/10 10:55:48;;;;;;;5.85;2.00;;;25.70;99.90;;;;;;5047549;28;20171;-71
2022/08/10 10:58:32;;;;;;;3.78;1.52;;;25.70;99.90;;;;;;5046135;28;20123;-70
2022/08/10 11:01:20;;;;;;;4.50;2.03;;;25.70;99.90;;;;;;5062236;28;20313;-72
2022/08/10 11:04:14;;;;;;;3.10;1.90;;;25.70;99.90;;;;;;5050211;28;20642;-73
2022/08/10 11:06:47;;;;;;;2.78;2.03;;;25.80;99.90;;;;;;5056310;28;20120;-73
2022/08/10 11:09:25;;;;;;;2.58;2.10;;;25.80;99.90;;;;;;5053391;28;20032;-74
2022/08/10 11:11:56;;;;;;;7.35;2.10;;;25.90;99.90;;;;;;5048932;28;20400;-71
2022/08/10 11:14:36;;;;;;;2.58;1.95;;;25.90;99.90;;;;;;5037255;28;20479;-71
2022/08/10 11:17:13;;;;;;;3.65;1.80;;;26.00;99.30;;;;;;5045116;28;20128;-75
2022/08/10 11:19:51;;;;;;;5.10;2.25;;;26.00;99.50;;;;;;5044154;28;20045;-71
2022/08/10 11:22:32;;;;;;;8.85;2.45;;;26.00;99.90;;;;;;5041437;28;20079;-73
2022/08/10 11:25:10;;;;;;;5.47;2.87;;;26.10;99.40;;;;;;5045116;28;20467;-73
2022/08/10 11:28:16;;;;;;;5.68;2.10;;;26.10;99.40;;;;;;5038580;28;20303;-70
2022/08/10 11:30:53;;;;;;;3.25;1.70;;;26.20;99.90;;;;;;4986584;28;20038;-71
2022/08/10 11:33:43;;;;;;;4.30;2.05;;;26.20;99.10;;;;;;4984783;28;20548;-72
2022/08/10 11:36:26;;;;;;;4.53;2.17;;;26.30;99.30;;;;;;5026043;28;20049;-72
2022/08/10 11:39:15;;;;;;;4.43;1.98;;;26.30;99.20;;;;;;5043957;28;20094;-71
2022/08/10 11:41:44;;;;;;;7.28;2.10;;;26.30;97.50;;;;;;5036099;28;20052;-71
2022/08/10 11:44:28;;;;;;;3.97;2.00;;;26.30;99.00;;;;;;5057828;28;20505;-73
2022/08/10 11:47:19;;;;;;;3.17;1.90;;;26.30;97.90;;;;;;5035563;28;20033;-71
2022/08/10 11:50:22;;;;;;;2.67;1.80;;;26.30;96.20;;;;;;5033899;28;20033;-71
2022/08/10 11:52:47;;;;;;;4.28;1.65;;;26.30;95.80;;;;;;5033513;28;20044;-72
2022/08/10 11:55:19;;;;;;;4.47;1.80;;;26.30;96.90;;;;;;5044919;28;20063;-75
2022/08/10 11:57:46;;;;;;;3.92;1.83;;;26.40;97.50;;;;;;5044960;28;20037;-70
2022/08/10 12:00:12;;;;;;;4.38;2.03;;;26.40;97.50;;;;;;5042647;28;20083;-70
2022/08/10 12:02:44;;;;;;;6.00;2.40;;;26.40;96.40;;;;;;5061135;28;20051;-72
2022/08/10 12:05:28;;;;;;;;;;;26.50;95.80;;;;;;5044932;28;20049;-72
2022/08/10 12:07:57;;;;;;;2.38;1.88;;;26.50;95.90;;;;;;5044045;28;19959;-71
2022/08/10 12:10:24;;;;;;;3.20;2.00;;;26.50;95.30;;;;;;5041547;28;20396;-73
2022/08/10 12:13:11;;;;;;;3.25;2.03;;;26.50;95.70;;;;;;5045392;28;20468;-72
2022/08/10 12:16:24;;;;;;;4.18;1.90;;;26.60;95.50;;;;;;5042199;28;20372;-70
2022/08/10 12:19:04;;;;;;;4.38;1.90;;;26.70;95.70;;;;;;5004071;28;21272;-71
2022/08/10 12:21:35;;;;;;;3.20;1.70;;;26.60;94.80;;;;;;5038423;28;20067;-71
2022/08/10 12:24:19;;;;;;;5.93;2.10;;;26.70;93.80;;;;;;5058712;28;20049;-71
2022/08/10 12:27:06;;;;;;;4.18;1.63;;;26.60;95.40;;;;;;5042397;28;20440;-70
2022/08/10 12:29:50;;;;;;;2.38;1.77;;;26.70;93.80;;;;;;5042786;28;20064;-70
2022/08/10 12:32:38;;;;;;;4.93;1.80;;;26.70;94.80;;;;;;5042952;28;20132;-70
2022/08/10 12:35:26;;;;;;;3.05;1.73;;;26.70;94.80;;;;;;5056309;28;20113;-70
2022/08/10 12:38:20;;;;;;;3.83;1.73;;;26.80;96.30;;;;;;5041481;28;20063;-70
2022/08/10 12:40:55;;;;;;;3.85;1.52;;;26.80;94.70;;;;;;5043500;28;20075;-70
2022/08/10 12:43:23;;;;;;;5.20;1.80;;;26.80;93.60;;;;;;5041196;28;20094;-70
2022/08/10 12:46:05;;;;;;;1.95;1.63;;;26.80;94.80;;;;;;5044681;28;20049;-71
2022/08/10 12:48:42;;;;;;;4.63;1.60;;;26.90;94.50;;;;;;5040313;28;20067;-72
2022/08/10 12:51:17;;;;;;;4.05;1.95;;;26.90;94.20;;;;;;5026148;28;20116;-70
2022/08/10 12:53:50;;;;;;;3.13;1.55;;;27.00;94.70;;;;;;5042606;28;20033;-71
2022/08/10 12:56:30;;;;;;;5.13;1.83;;;27.00;94.30;;;;;;5044127;28;20040;-70
2022/08/10 12:58:56;;;;;;;4.60;1.70;;;26.90;92.70;;;;;;5043286;28;20044;-71
2022/08/10 13:01:26;;;;;;;2.63;1.63;;;26.90;93.70;;;;;;5058541;28;20622;-70
2022/08/10 13:03:57;;;;;;;4.28;1.60;;;26.90;94.10;;;;;;5040414;28;20388;-71
2022/08/10 13:06:25;;;;;;;5.15;1.73;;;27.00;94.60;;;;;;5042138;28;20045;-71
2022/08/10 13:09:08;;;;;;;1.83;1.40;;;27.00;94.10;;;;;;5043827;28;20134;-72
2022/08/10 13:11:41;;;;;;;1.90;1.52;;;27.00;93.80;;;;;;5044065;28;20487;-72
2022/08/10 13:14:19;;;;;;;1.60;1.50;;;27.00;93.60;;;;;;5048103;28;20487;-71
2022/08/10 13:16:46;;;;;;;4.15;1.60;;;27.00;92.80;;;;;;5062673;28;20053;-71